createdAt,value
2023-08-10T00:03:01.417Z,101233.25
2023-08-10T00:08:09.688Z,101233.05
2023-08-10T00:13:17.788Z,101232.63
2023-08-10T00:18:25.898Z,101228.46
2023-08-10T00:23:33.849Z,101224.35
2023-08-10T00:28:41.636Z,101228.65
2023-08-10T00:33:49.369Z,101231.60
2023-08-10T00:38:57.436Z,101235.46
2023-08-10T00:44:05.675Z,101234.52
2023-08-10T00:49:13.811Z,101234.49
2023-08-10T00:54:21.565Z,101234.70
2023-08-10T00:59:31.939Z,101241.17
2023-08-10T01:04:39.636Z,101247.30
2023-08-10T01:09:57.892Z,101252.96
2023-08-10T01:15:14.449Z,101255.85
2023-08-10T01:20:24.703Z,101253.38
2023-08-10T01:25:34.333Z,101261.20
2023-08-10T01:30:42.354Z,101262.72
2023-08-10T01:35:50.069Z,101275.36
2023-08-10T01:40:57.837Z,101270.36
2023-08-10T01:46:06.261Z,101271.60
2023-08-10T01:51:16.521Z,101275.91
2023-08-10T01:56:24.645Z,101276.59
2023-08-10T02:01:32.714Z,101270.80
2023-08-10T02:06:41.863Z,101268.15
2023-08-10T02:11:50.130Z,101271.50
2023-08-10T02:16:57.923Z,101270.73
2023-08-10T02:22:06.509Z,101268.60
2023-08-10T02:27:14.651Z,101270.41
2023-08-10T02:32:22.381Z,101264.84
2023-08-10T02:37:30.138Z,101264.15
2023-08-10T02:42:37.851Z,101268.27
2023-08-10T02:47:46.151Z,101271.63
2023-08-10T02:52:53.860Z,101273.86
2023-08-10T02:58:01.948Z,101275.73
2023-08-10T03:03:10.195Z,101270.22
2023-08-10T03:08:17.881Z,101278.88
2023-08-10T03:13:25.583Z,101280.19
2023-08-10T03:18:33.512Z,101290.33
2023-08-10T03:23:41.201Z,101293.57
2023-08-10T03:28:49.725Z,101300.91
2023-08-10T03:33:57.412Z,101304.23
2023-08-10T03:39:05.271Z,101313.75
2023-08-10T03:44:13.301Z,101317.09
2023-08-10T03:49:24.140Z,101325.13
2023-08-10T03:54:33.004Z,101327.71
2023-08-10T03:59:40.716Z,101332.23
2023-08-10T04:04:48.757Z,101331.21
2023-08-10T04:09:56.438Z,101336.40
2023-08-10T04:15:05.108Z,101338.36
2023-08-10T04:20:15.386Z,101340.20
2023-08-10T04:25:23.843Z,101344.67
2023-08-10T04:30:31.819Z,101342.29
2023-08-10T04:35:39.813Z,101345.95
2023-08-10T04:40:47.540Z,101347.62
2023-08-10T04:45:55.256Z,101352.82
2023-08-10T04:51:03.544Z,101354.81
2023-08-10T04:56:11.324Z,101359.77
2023-08-10T05:01:19.402Z,101363.54
2023-08-10T05:06:27.776Z,101361.86
2023-08-10T05:11:35.584Z,101364.30
2023-08-10T05:16:43.705Z,101371.93
2023-08-10T05:21:51.713Z,101373.98
2023-08-10T05:26:59.407Z,101378.56
2023-08-10T05:32:08.057Z,101380.25
2023-08-10T05:37:16.101Z,101379.02
2023-08-10T05:42:24.580Z,101385.52
2023-08-10T05:47:33.461Z,101394.90
2023-08-10T05:52:41.960Z,101401.30
2023-08-10T05:57:50.055Z,101392.10
2023-08-10T06:02:57.812Z,101399.73
2023-08-10T06:08:08.391Z,101404.60
2023-08-10T06:13:16.110Z,101405.09
2023-08-10T06:18:24.127Z,101408.16
2023-08-10T06:23:32.248Z,101404.83
2023-08-10T06:28:40.563Z,101403.48
2023-08-10T06:33:48.445Z,101406.09
2023-08-10T06:38:56.512Z,101412.63
2023-08-10T06:44:04.701Z,101412.87
2023-08-10T06:49:12.767Z,101419.25
2023-08-10T06:54:21.770Z,101421.76
2023-08-10T07:04:57.602Z,101429.78
2023-08-10T07:10:07.349Z,101431.18
2023-08-10T07:15:18.708Z,101432.51
2023-08-10T07:20:27.148Z,101432.88
2023-08-10T07:25:35.417Z,101436.53
2023-08-10T07:30:43.211Z,101436.77
2023-08-10T07:35:51.982Z,101432.20
2023-08-10T07:40:59.911Z,101438.92
2023-08-10T07:46:07.915Z,101439.52
2023-08-10T07:51:16.058Z,101440.76
2023-08-10T07:56:24.133Z,101445.42
2023-08-10T08:01:35.112Z,101451.80
2023-08-10T08:06:44.658Z,101457.71
2023-08-10T08:11:55.909Z,101455.34
2023-08-10T08:17:05.806Z,101451.46
2023-08-10T08:22:16.872Z,101452.41
2023-08-10T08:27:26.445Z,101452.10
2023-08-10T08:32:50.538Z,101443.29
2023-08-10T08:38:04.466Z,101440.22
2023-08-10T08:43:14.296Z,101444.29
2023-08-10T08:48:29.567Z,101440.80
2023-08-10T08:53:54.004Z,101439.37
2023-08-10T08:59:06.086Z,101436.42
2023-08-10T09:04:14.281Z,101434.60
2023-08-10T09:09:26.069Z,101440.03
2023-08-10T09:14:33.966Z,101438.11
2023-08-10T09:19:43.542Z,101443.20
2023-08-10T09:24:54.027Z,101435.63
2023-08-10T09:30:05.049Z,101436.04
2023-08-10T09:35:18.560Z,101434.12
2023-08-10T09:40:27.118Z,101429.34
2023-08-10T09:45:36.786Z,101425.48
2023-08-10T09:50:48.707Z,101424.95
2023-08-10T09:55:59.633Z,101422.74
2023-08-10T10:01:09.441Z,101423.90
2023-08-10T10:06:20.489Z,101422.49
2023-08-10T10:11:31.429Z,101427.16
2023-08-10T10:16:39.793Z,101426.66
2023-08-10T10:21:48.934Z,101418.23
2023-08-10T10:27:06.732Z,101426.23
2023-08-10T10:32:19.984Z,101415.23
2023-08-10T10:37:34.190Z,101406.52
2023-08-10T10:43:08.669Z,101406.08
2023-08-10T10:48:17.187Z,101401.30
2023-08-10T10:53:26.563Z,101395.65
2023-08-10T10:58:34.425Z,101398.45
2023-08-10T11:03:43.475Z,101389.73
2023-08-10T11:08:54.877Z,101392.73
2023-08-10T11:14:03.249Z,101390.02
2023-08-10T11:19:14.448Z,101387.73
2023-08-10T11:24:22.416Z,101387.15
2023-08-10T11:29:32.341Z,101386.73
2023-08-10T11:34:41.626Z,101380.13
2023-08-10T11:39:49.299Z,101382.88
2023-08-10T11:44:57.468Z,101387.41
2023-08-10T11:50:07.455Z,101386.90
2023-08-10T11:55:18.159Z,101387.89
2023-08-10T12:00:31.585Z,101384.98
2023-08-10T12:05:47.573Z,101381.90
2023-08-10T12:11:06.310Z,101373.23
2023-08-10T12:16:18.832Z,101373.21
2023-08-10T12:21:27.041Z,101378.62
2023-08-10T12:26:35.328Z,101377.41
2023-08-10T12:31:43.849Z,101382.89
2023-08-10T12:36:54.903Z,101381.30
2023-08-10T12:42:04.247Z,101382.17
2023-08-10T12:47:12.966Z,101376.09
2023-08-10T12:52:21.016Z,101381.09
2023-08-10T12:57:30.331Z,101376.77
2023-08-10T13:02:39.062Z,101369.51
2023-08-10T13:07:48.542Z,101370.71
2023-08-10T13:12:57.171Z,101361.44
2023-08-10T13:18:05.392Z,101350.20
2023-08-10T13:23:13.178Z,101357.98
2023-08-10T13:28:21.537Z,101361.67
2023-08-10T13:33:30.233Z,101359.45
2023-08-10T13:38:38.129Z,101357.23
2023-08-10T13:43:49.832Z,101352.39
2023-08-10T13:48:58.228Z,101351.70
2023-08-10T13:54:07.292Z,101351.48
2023-08-10T13:59:17.321Z,101355.34
2023-08-10T14:04:25.281Z,101352.55
2023-08-10T14:09:34.157Z,101346.48
2023-08-10T14:14:42.821Z,101348.79
2023-08-10T14:19:50.784Z,101350.86
2023-08-10T14:24:58.554Z,101347.75
2023-08-10T14:30:07.734Z,101343.54
2023-08-10T14:35:15.917Z,101337.23
2023-08-10T14:40:23.854Z,101339.58
2023-08-10T14:45:31.705Z,101341.34
2023-08-10T14:50:39.548Z,101346.70
2023-08-10T14:55:47.371Z,101349.09
2023-08-10T15:00:55.802Z,101355.23
2023-08-10T15:06:08.564Z,101353.33
2023-08-10T15:11:17.270Z,101355.15
2023-08-10T15:16:25.041Z,101360.82
2023-08-10T15:21:33.173Z,101353.94
2023-08-10T15:26:41.163Z,101355.08
2023-08-10T15:31:48.871Z,101356.26
2023-08-10T15:36:58.393Z,101354.54
2023-08-10T15:42:07.179Z,101357.30
2023-08-10T15:47:15.018Z,101356.11
2023-08-10T15:52:23.043Z,101360.23
2023-08-10T15:57:30.815Z,101357.73
2023-08-10T16:02:40.740Z,101364.36
2023-08-10T16:07:50.924Z,101370.52
2023-08-10T16:13:04.213Z,101373.48
2023-08-10T16:18:26.790Z,101365.36
2023-08-10T16:23:40.785Z,101363.81
2023-08-10T16:28:56.363Z,101368.55
2023-08-10T16:34:08.920Z,101369.47
2023-08-10T16:39:19.853Z,101371.56
2023-08-10T16:44:31.147Z,101375.54
2023-08-10T16:49:40.837Z,101385.40
2023-08-10T16:54:50.745Z,101386.64
2023-08-10T17:00:08.319Z,101392.88
2023-08-10T17:05:17.262Z,101395.26
2023-08-10T17:10:27.890Z,101395.52
2023-08-10T17:15:36.965Z,101400.15
2023-08-10T17:20:45.580Z,101403.63
2023-08-10T17:25:54.610Z,101401.06
2023-08-10T17:31:06.709Z,101399.81
2023-08-10T17:36:14.889Z,101398.10
2023-08-10T17:41:25.433Z,101400.48
2023-08-10T17:46:34.757Z,101405.68
2023-08-10T17:51:44.328Z,101411.55
2023-08-10T17:56:53.157Z,101415.55
2023-08-10T18:02:01.598Z,101416.85
2023-08-10T18:07:09.424Z,101425.39
2023-08-10T18:12:17.219Z,101423.39
2023-08-10T18:17:25.548Z,101431.88
2023-08-10T18:22:33.617Z,101430.23
2023-08-10T18:27:41.450Z,101433.67
2023-08-10T18:32:49.691Z,101439.23
2023-08-10T18:37:57.851Z,101440.21
2023-08-10T18:43:05.928Z,101446.60
2023-08-10T18:48:22.816Z,101445.55
2023-08-10T18:53:31.575Z,101458.55
2023-08-10T18:58:39.318Z,101465.30
2023-08-10T19:03:47.167Z,101464.42
2023-08-10T19:08:55.042Z,101467.37
2023-08-10T19:14:02.707Z,101465.13
2023-08-10T19:19:10.822Z,101467.35
2023-08-10T19:24:18.566Z,101468.08
2023-08-10T19:29:26.823Z,101474.73
2023-08-10T19:34:34.535Z,101476.71
2023-08-10T19:39:42.773Z,101475.70
2023-08-10T19:44:50.412Z,101478.90
2023-08-10T19:49:59.254Z,101483.77
2023-08-10T19:55:09.325Z,101489.72
2023-08-10T20:00:18.464Z,101489.04
2023-08-10T20:05:26.652Z,101486.45
2023-08-10T20:10:43.820Z,101489.42
2023-08-10T20:15:58.781Z,101490.52
2023-08-10T20:21:13.522Z,101491.98
2023-08-10T20:26:25.599Z,101490.95
2023-08-10T20:31:40.059Z,101494.52
2023-08-10T20:36:51.725Z,101493.70
2023-08-10T20:42:00.862Z,101497.07
2023-08-10T20:47:09.226Z,101497.23
2023-08-10T20:52:19.742Z,101493.45
2023-08-10T20:57:33.504Z,101491.60
2023-08-10T21:02:43.338Z,101491.27
2023-08-10T21:07:51.561Z,101494.71
2023-08-10T21:13:03.812Z,101495.48
2023-08-10T21:18:12.939Z,101497.02
2023-08-10T21:23:24.599Z,101499.94
2023-08-10T21:28:45.320Z,101501.55
2023-08-10T21:33:56.941Z,101494.65
2023-08-10T21:39:08.338Z,101499.71
2023-08-10T21:44:19.159Z,101501.27
2023-08-10T21:49:37.624Z,101501.42
2023-08-10T21:54:48.508Z,101500.80
2023-08-10T22:00:01.055Z,101502.16
2023-08-10T22:05:11.071Z,101499.84
2023-08-10T22:10:20.587Z,101498.17
2023-08-10T22:15:34.997Z,101494.90
2023-08-10T22:20:44.279Z,101496.70
2023-08-10T22:25:53.587Z,101495.80
2023-08-10T22:31:05.418Z,101490.98
2023-08-10T22:36:13.859Z,101499.52
2023-08-10T22:41:24.092Z,101499.89
2023-08-10T22:46:32.489Z,101503.47
2023-08-10T22:51:40.846Z,101502.38
2023-08-10T22:56:49.679Z,101508.69
2023-08-10T23:01:57.616Z,101514.83
2023-08-10T23:07:06.944Z,101513.50
2023-08-10T23:12:14.679Z,101500.23
2023-08-10T23:17:22.500Z,101502.55
2023-08-10T23:22:30.887Z,101498.73
2023-08-10T23:27:38.994Z,101499.04
2023-08-10T23:32:46.724Z,101503.93
2023-08-10T23:37:57.298Z,101503.20
2023-08-10T23:43:05.431Z,101496.23
2023-08-10T23:48:13.191Z,101496.59
2023-08-10T23:53:21.544Z,101490.05
2023-08-10T23:58:38.584Z,101491.95
